Kezdőlap
METAR-TAF:

METAR-TAF

Repülőterek :

Mitiga International Airport

Tripoli, Líbia

földrajzi szélesség: 32-54N, földrajzi hosszúság: 13-17E, magasság: 11 m

Jelenlegi meteorológiai megfigyelések

A jelentés 12 órával és 40 perccel ezelõtt készült, 05:55 UTC
Kelet-délkeleti szél 9 kt
Hőmérséklet 23°C
Páratartalom 78%
Légköri nyomás 1011 hPa
Látótávolság: 6000 m

METAR: HLLM 170555Z 11009KT 6000 NSC 23/19 Q1011

Idő: 20:35 (18:35 UTC)

Előrejelzés

A jelentés 25 órával és 35 perccel ezelõtt készült, 17:00 UTC
Az előrejelzés 16-én 18 óra UTC és 17-én 18 óra UTC között érvényes
Kelet-délkeleti szél 12 kt
Látótávolság: 8000 m

TAF: HLLM 161700Z 1618/1718 06012KT 8000 NSC BECMG1702/1704 12012KT

Meteorológiai megfigyelések és előrejelzések több, mint 4000 repülőtéren (METAR és TAF jelentéseket).

A térképen piros és sárga pontok jelzik az elérhető meteorológiai állomásokat.

Mozgassa az egeret a pont fölött, hogy megjelenjen az állomás neve.

Azután kattintson az időjárási megfigyelések és előrejelzések megtekintéséhez.

A térkép megváltoztatása: kattintson a fekete keresztel jelölt zöld gombra ráközelítéshez, a vonallal jelölt zöld gombra távolításhoz, vagy a zöld nyilakra a szomszédos térképek eléréséhez.


METAR-TAF: